createdAt,value
2024-02-18T00:00:17.843Z,-1.68
2024-02-18T00:01:17.557Z,-1.68
2024-02-18T00:02:17.957Z,-1.68
2024-02-18T00:03:18.076Z,-1.7
2024-02-18T00:04:18.114Z,-1.71
2024-02-18T00:05:18.088Z,-1.72
2024-02-18T00:06:18.102Z,-1.72
2024-02-18T00:07:18.082Z,-1.7
2024-02-18T00:08:18.227Z,-1.69
2024-02-18T00:09:18.084Z,-1.71
2024-02-18T00:10:18.109Z,-1.7
2024-02-18T00:11:18.177Z,-1.69
2024-02-18T00:12:18.154Z,-1.73
2024-02-18T00:13:18.253Z,-1.74
2024-02-18T00:14:18.158Z,-1.73
2024-02-18T00:15:18.301Z,-1.74
2024-02-18T00:16:18.337Z,-1.76
2024-02-18T00:17:18.204Z,-1.78
2024-02-18T00:18:18.329Z,-1.79
2024-02-18T00:19:18.472Z,-1.77
2024-02-18T00:20:18.340Z,-1.75
2024-02-18T00:21:18.949Z,-1.79
2024-02-18T00:22:18.293Z,-1.75
2024-02-18T00:23:18.315Z,-1.76
2024-02-18T00:24:18.394Z,-1.78
2024-02-18T00:25:18.825Z,-1.82
2024-02-18T00:26:20.830Z,-1.82
2024-02-18T00:27:20.555Z,-1.81
2024-02-18T00:28:20.553Z,-1.82
2024-02-18T00:29:20.600Z,-1.83
2024-02-18T00:30:20.749Z,-1.79
2024-02-18T00:31:20.610Z,-1.79
2024-02-18T00:32:20.593Z,-1.76
2024-02-18T00:33:20.813Z,-1.77
2024-02-18T00:34:20.800Z,-1.8
2024-02-18T00:35:20.661Z,-1.85
2024-02-18T00:36:20.843Z,-1.89
2024-02-18T00:37:20.724Z,-1.88
2024-02-18T00:38:20.721Z,-1.88
2024-02-18T00:39:20.979Z,-1.87
2024-02-18T00:40:20.813Z,-1.88
2024-02-18T00:41:20.759Z,-1.91
2024-02-18T00:42:20.844Z,-1.9
2024-02-18T00:43:20.812Z,-1.89
2024-02-18T00:44:20.854Z,-1.89
2024-02-18T00:45:21.043Z,-1.92
2024-02-18T00:46:34.362Z,-1.94
2024-02-18T00:47:22.055Z,-1.93
2024-02-18T00:48:22.191Z,-1.9
2024-02-18T00:49:22.312Z,-1.92
2024-02-18T00:50:22.138Z,-1.93
2024-02-18T00:51:22.356Z,-1.94
2024-02-18T00:52:22.162Z,-1.94
2024-02-18T00:53:22.217Z,-1.95
2024-02-18T00:54:22.258Z,-1.95
2024-02-18T00:55:22.207Z,-1.98
2024-02-18T00:56:22.213Z,-2
2024-02-18T00:57:22.263Z,-2
2024-02-18T00:58:22.252Z,-2
2024-02-18T00:59:22.298Z,-2
2024-02-18T01:00:22.340Z,-2
2024-02-18T01:01:22.499Z,-1.97
2024-02-18T01:02:22.323Z,-1.99
2024-02-18T01:03:22.500Z,-1.99
2024-02-18T01:04:22.522Z,-2
2024-02-18T01:05:22.407Z,-2.03
2024-02-18T01:06:22.409Z,-2.04
2024-02-18T01:07:22.427Z,-2.02
2024-02-18T01:08:22.418Z,-2
2024-02-18T01:09:22.475Z,-2.02
2024-02-18T01:10:22.492Z,-2.02
2024-02-18T01:11:22.537Z,-2.04
2024-02-18T01:12:22.538Z,-2.04
2024-02-18T01:13:22.521Z,-2.03
2024-02-18T01:14:22.535Z,-2.05
2024-02-18T01:15:22.593Z,-2.05
2024-02-18T01:16:22.572Z,-2.07
2024-02-18T01:17:22.593Z,-2.06
2024-02-18T01:18:22.693Z,-2.04
2024-02-18T01:19:22.800Z,-2.07
2024-02-18T01:20:22.677Z,-2.07
2024-02-18T01:21:22.689Z,-2.07
2024-02-18T01:22:22.668Z,-2.07
2024-02-18T01:23:22.661Z,-2.09
2024-02-18T01:24:22.738Z,-2.08
2024-02-18T01:25:22.688Z,-2.07
2024-02-18T01:26:22.718Z,-2.06
2024-02-18T01:27:22.825Z,-2.07
2024-02-18T01:28:22.734Z,-2.07
2024-02-18T01:29:22.791Z,-2.09
2024-02-18T01:30:22.814Z,-2.1
2024-02-18T01:31:22.820Z,-2.11
2024-02-18T01:32:22.825Z,-2.13
2024-02-18T01:33:22.855Z,-2.13
2024-02-18T01:34:22.933Z,-2.13
2024-02-18T01:35:23.282Z,-2.12
2024-02-18T01:36:22.985Z,-2.11
2024-02-18T01:37:22.916Z,-2.12
2024-02-18T01:38:22.903Z,-2.16
2024-02-18T01:39:22.920Z,-2.14
2024-02-18T01:40:22.927Z,-2.17
2024-02-18T01:41:22.941Z,-2.16
2024-02-18T01:42:22.962Z,-2.14
2024-02-18T01:43:22.960Z,-2.17
2024-02-18T01:44:22.983Z,-2.22
2024-02-18T01:45:23.009Z,-2.24
2024-02-18T01:46:23.056Z,-2.27
2024-02-18T01:47:23.042Z,-2.3
2024-02-18T01:48:24.628Z,-2.31
2024-02-18T01:49:23.369Z,-2.3
2024-02-18T01:50:24.285Z,-2.31
2024-02-18T01:51:23.684Z,-2.34
2024-02-18T01:52:23.294Z,-2.35
2024-02-18T01:53:23.438Z,-2.32
2024-02-18T01:54:23.253Z,-2.26
2024-02-18T01:55:24.525Z,-2.25
2024-02-18T01:56:23.741Z,-2.29
2024-02-18T01:57:23.212Z,-2.36
2024-02-18T01:58:23.367Z,-2.37
2024-02-18T01:59:23.212Z,-2.41
2024-02-18T02:00:23.260Z,-2.44
2024-02-18T02:01:23.287Z,-2.44
2024-02-18T02:02:23.345Z,-2.42
2024-02-18T02:03:23.321Z,-2.43
2024-02-18T02:04:23.462Z,-2.49
2024-02-18T02:05:23.425Z,-2.54
2024-02-18T02:06:23.880Z,-2.51
2024-02-18T02:07:23.520Z,-2.49
2024-02-18T02:08:23.500Z,-2.51
2024-02-18T02:09:23.355Z,-2.54
2024-02-18T02:10:23.363Z,-2.56
2024-02-18T02:11:23.572Z,-2.56
2024-02-18T02:12:23.448Z,-2.57
2024-02-18T02:13:23.401Z,-2.6
2024-02-18T02:14:23.443Z,-2.62
2024-02-18T02:15:23.486Z,-2.61
2024-02-18T02:16:23.595Z,-2.61
2024-02-18T02:17:23.462Z,-2.61
2024-02-18T02:18:23.597Z,-2.61
2024-02-18T02:19:23.627Z,-2.62
2024-02-18T02:20:23.515Z,-2.63
2024-02-18T02:21:23.514Z,-2.62
2024-02-18T02:22:23.509Z,-2.6
2024-02-18T02:23:23.800Z,-2.62
2024-02-18T02:24:23.644Z,-2.69
2024-02-18T02:25:23.547Z,-2.67
2024-02-18T02:26:24.859Z,-2.67
2024-02-18T02:27:26.837Z,-2.68
2024-02-18T02:28:25.300Z,-2.69
2024-02-18T02:29:24.116Z,-2.69
2024-02-18T02:30:23.826Z,-2.7
2024-02-18T02:31:23.939Z,-2.69
2024-02-18T02:32:23.694Z,-2.69
2024-02-18T02:33:24.226Z,-2.69
2024-02-18T02:34:23.766Z,-2.71
2024-02-18T02:35:26.629Z,-2.73
2024-02-18T02:36:23.819Z,-2.74
2024-02-18T02:37:23.740Z,-2.74
2024-02-18T02:38:23.742Z,-2.7
2024-02-18T02:39:24.284Z,-2.71
2024-02-18T02:40:23.808Z,-2.74
2024-02-18T02:41:23.774Z,-2.76
2024-02-18T02:42:23.892Z,-2.78
2024-02-18T02:43:23.817Z,-2.81
2024-02-18T02:44:23.948Z,-2.78
2024-02-18T02:45:23.892Z,-2.8
2024-02-18T02:46:25.129Z,-2.77
2024-02-18T02:47:23.908Z,-2.75
2024-02-18T02:48:23.968Z,-2.77
2024-02-18T02:49:24.135Z,-2.77
2024-02-18T02:50:23.925Z,-2.77
2024-02-18T02:51:23.977Z,-2.78
2024-02-18T02:52:24.089Z,-2.79
2024-02-18T02:53:23.944Z,-2.84
2024-02-18T02:54:23.992Z,-2.84
2024-02-18T02:55:23.971Z,-2.86
2024-02-18T02:56:24.004Z,-2.84
2024-02-18T02:57:24.021Z,-2.85
2024-02-18T02:58:24.025Z,-2.88
2024-02-18T02:59:24.592Z,-2.88
2024-02-18T03:00:24.075Z,-2.92
2024-02-18T03:01:24.161Z,-2.87
2024-02-18T03:02:24.076Z,-2.84
2024-02-18T03:03:24.596Z,-2.87
2024-02-18T03:04:24.355Z,-2.88
2024-02-18T03:05:24.136Z,-2.91
2024-02-18T03:06:24.214Z,-2.91
2024-02-18T03:07:24.185Z,-2.91
2024-02-18T03:08:24.160Z,-2.91
2024-02-18T03:09:24.247Z,-2.95
2024-02-18T03:10:24.254Z,-2.96
2024-02-18T03:11:24.228Z,-3
2024-02-18T03:12:24.619Z,-3.01
2024-02-18T03:13:24.348Z,-3.05
2024-02-18T03:14:24.245Z,-3.08
2024-02-18T03:15:24.349Z,-3.09
2024-02-18T03:16:24.311Z,-3.12
2024-02-18T03:17:24.396Z,-3.15
2024-02-18T03:18:24.423Z,-3.16
2024-02-18T03:19:24.437Z,-3.18
2024-02-18T03:20:24.330Z,-3.21
2024-02-18T03:21:25.334Z,-3.21
2024-02-18T03:22:24.918Z,-3.18
2024-02-18T03:23:24.401Z,-3.22
2024-02-18T03:24:24.408Z,-3.23
2024-02-18T03:25:24.591Z,-3.21
2024-02-18T03:26:24.420Z,-3.26
2024-02-18T03:27:24.462Z,-3.3
2024-02-18T03:28:24.419Z,-3.29
2024-02-18T03:29:24.414Z,-3.32
2024-02-18T03:30:24.491Z,-3.39
2024-02-18T03:31:24.480Z,-3.33
2024-02-18T03:32:24.514Z,-3.3
2024-02-18T03:33:24.661Z,-3.35
2024-02-18T03:34:24.713Z,-3.39
2024-02-18T03:35:24.711Z,-3.42
2024-02-18T03:36:24.776Z,-3.45
2024-02-18T03:37:24.569Z,-3.48
2024-02-18T03:38:24.670Z,-3.49
2024-02-18T03:39:24.613Z,-3.54
2024-02-18T03:40:25.040Z,-3.58
2024-02-18T03:41:24.602Z,-3.61
2024-02-18T03:42:24.702Z,-3.6
2024-02-18T03:43:24.657Z,-3.57
2024-02-18T03:44:24.667Z,-3.57
2024-02-18T03:45:24.710Z,-3.64
2024-02-18T03:46:24.710Z,-3.66
2024-02-18T03:47:24.784Z,-3.65
2024-02-18T03:48:24.852Z,-3.68
2024-02-18T03:49:24.802Z,-3.71
2024-02-18T03:50:24.747Z,-3.72
2024-02-18T03:51:24.772Z,-3.76
2024-02-18T03:52:24.777Z,-3.77
2024-02-18T03:53:24.860Z,-3.76
2024-02-18T03:54:24.892Z,-3.78
2024-02-18T03:55:24.804Z,-3.82
2024-02-18T03:56:24.826Z,-3.86
2024-02-18T03:57:24.889Z,-3.86
2024-02-18T03:58:24.869Z,-3.92
2024-02-18T03:59:25.070Z,-4
2024-02-18T04:00:25.131Z,-3.96
2024-02-18T04:01:24.998Z,-3.96
2024-02-18T04:02:24.881Z,-3.95
2024-02-18T04:03:24.901Z,-3.96
2024-02-18T04:04:25.095Z,-3.96
2024-02-18T04:05:24.986Z,-4
2024-02-18T04:06:25.099Z,-3.99
2024-02-18T04:07:24.971Z,-3.99
2024-02-18T04:08:25.935Z,-4.02
2024-02-18T04:09:26.864Z,-4.05
2024-02-18T04:10:25.977Z,-4.04
2024-02-18T04:11:26.096Z,-4.03
2024-02-18T04:12:26.083Z,-4.13
2024-02-18T04:13:25.998Z,-4.16
2024-02-18T04:14:26.056Z,-4.17
2024-02-18T04:15:26.299Z,-4.13
2024-02-18T04:16:26.127Z,-4.11
2024-02-18T04:17:26.133Z,-4.17
2024-02-18T04:18:26.234Z,-4.25
2024-02-18T04:19:26.162Z,-4.23
2024-02-18T04:20:26.282Z,-4.23
2024-02-18T04:21:26.139Z,-4.27
2024-02-18T04:22:26.217Z,-4.34
2024-02-18T04:23:26.164Z,-4.29
2024-02-18T04:24:26.191Z,-4.34
2024-02-18T04:25:26.157Z,-4.37
2024-02-18T04:26:26.168Z,-4.31
2024-02-18T04:27:26.214Z,-4.33
2024-02-18T04:28:26.205Z,-4.36
2024-02-18T04:29:26.251Z,-4.37
2024-02-18T04:30:26.287Z,-4.32
2024-02-18T04:31:26.245Z,-4.31
2024-02-18T04:32:26.259Z,-4.34
2024-02-18T04:33:26.346Z,-4.45
2024-02-18T04:34:26.360Z,-4.49
2024-02-18T04:35:26.328Z,-4.5
2024-02-18T04:36:26.505Z,-4.54
2024-02-18T04:37:26.351Z,-4.5
2024-02-18T04:38:26.324Z,-4.5
2024-02-18T04:39:26.412Z,-4.54
2024-02-18T04:40:26.409Z,-4.58
2024-02-18T04:41:26.401Z,-4.61
2024-02-18T04:42:26.478Z,-4.6
2024-02-18T04:43:26.380Z,-4.52
2024-02-18T04:44:26.423Z,-4.55
2024-02-18T04:45:26.951Z,-4.55
2024-02-18T04:46:26.916Z,-4.59
2024-02-18T04:47:27.257Z,-4.56
2024-02-18T04:48:27.082Z,-4.56
2024-02-18T04:49:27.094Z,-4.59
2024-02-18T04:50:26.981Z,-4.67
2024-02-18T04:51:26.974Z,-4.65
2024-02-18T04:52:26.993Z,-4.74
2024-02-18T04:53:26.978Z,-4.75
2024-02-18T04:54:27.050Z,-4.74
2024-02-18T04:55:27.048Z,-4.77
2024-02-18T04:56:27.027Z,-4.75
2024-02-18T04:57:27.046Z,-4.67
2024-02-18T04:58:27.041Z,-4.74
2024-02-18T04:59:27.195Z,-4.77
2024-02-18T05:00:27.097Z,-4.78
2024-02-18T05:01:27.261Z,-4.75
2024-02-18T05:02:27.193Z,-4.74
2024-02-18T05:03:27.191Z,-4.78
2024-02-18T05:04:27.451Z,-4.77
2024-02-18T05:05:27.190Z,-4.73
2024-02-18T05:06:27.173Z,-4.76
2024-02-18T05:07:27.142Z,-4.8
2024-02-18T05:08:27.214Z,-4.72
2024-02-18T05:09:27.351Z,-4.71
2024-02-18T05:10:27.238Z,-4.74
2024-02-18T05:11:27.326Z,-4.76
2024-02-18T05:12:27.263Z,-4.8
2024-02-18T05:13:27.232Z,-4.88
2024-02-18T05:14:27.290Z,-4.96
2024-02-18T05:15:27.409Z,-4.97
2024-02-18T05:16:27.322Z,-4.82
2024-02-18T05:17:27.771Z,-4.88
2024-02-18T05:18:28.162Z,-4.87
2024-02-18T05:19:27.920Z,-4.89
2024-02-18T05:20:27.846Z,-4.87
2024-02-18T05:21:27.819Z,-4.85
2024-02-18T05:22:27.836Z,-4.87
2024-02-18T05:23:27.886Z,-4.94
2024-02-18T05:24:27.915Z,-4.99
2024-02-18T05:25:27.867Z,-5.05
2024-02-18T05:26:27.910Z,-5.05
2024-02-18T05:27:27.914Z,-5.05
2024-02-18T05:28:27.925Z,-5.04
2024-02-18T05:29:27.950Z,-5.01
2024-02-18T05:30:28.004Z,-4.93
2024-02-18T05:31:28.239Z,-4.9
2024-02-18T05:32:28.014Z,-4.88
2024-02-18T05:33:28.085Z,-4.89
2024-02-18T05:34:28.332Z,-4.93
2024-02-18T05:35:28.074Z,-4.96
2024-02-18T05:36:28.108Z,-5.04
2024-02-18T05:37:28.078Z,-5.09
2024-02-18T05:38:28.079Z,-5.1
2024-02-18T05:39:28.110Z,-5.03
2024-02-18T05:40:28.129Z,-5
2024-02-18T05:41:28.090Z,-4.98
2024-02-18T05:42:28.130Z,-4.96
2024-02-18T05:43:28.111Z,-4.93
2024-02-18T05:44:28.131Z,-4.93
2024-02-18T05:45:28.176Z,-4.89
2024-02-18T05:46:28.145Z,-4.87
2024-02-18T05:47:28.209Z,-4.9
2024-02-18T05:48:28.291Z,-4.92
2024-02-18T05:49:28.285Z,-4.91
2024-02-18T05:50:28.242Z,-4.92
2024-02-18T05:51:28.295Z,-4.94
2024-02-18T05:52:28.246Z,-4.91
2024-02-18T05:53:28.280Z,-4.94
2024-02-18T05:54:28.315Z,-5.01
2024-02-18T05:55:28.335Z,-4.96
2024-02-18T05:56:28.334Z,-4.96
2024-02-18T05:57:28.346Z,-4.97
2024-02-18T05:58:28.359Z,-4.9
2024-02-18T05:59:28.349Z,-4.9
2024-02-18T06:00:28.444Z,-4.92
2024-02-18T06:01:28.563Z,-4.98
2024-02-18T06:02:28.395Z,-4.97
2024-02-18T06:03:28.482Z,-5.01
2024-02-18T06:04:28.421Z,-5.03
2024-02-18T06:05:28.618Z,-5.01
2024-02-18T06:06:28.539Z,-5
2024-02-18T06:07:28.556Z,-4.99
2024-02-18T06:08:28.519Z,-5.01
2024-02-18T06:09:28.560Z,-5.02
2024-02-18T06:10:29.598Z,-4.99
2024-02-18T06:11:28.648Z,-4.89
2024-02-18T06:12:28.612Z,-4.88
2024-02-18T06:13:28.598Z,-4.87
2024-02-18T06:14:28.575Z,-4.89
2024-02-18T06:15:28.628Z,-4.92
2024-02-18T06:16:28.615Z,-4.95
2024-02-18T06:17:28.704Z,-4.94
2024-02-18T06:18:28.794Z,-4.9
2024-02-18T06:19:28.825Z,-4.92
2024-02-18T06:20:28.737Z,-4.82
2024-02-18T06:21:28.715Z,-4.78
2024-02-18T06:22:28.730Z,-4.75
2024-02-18T06:23:28.720Z,-4.74
2024-02-18T06:24:29.355Z,-4.77
2024-02-18T06:25:28.793Z,-4.78
2024-02-18T06:26:28.934Z,-4.79
2024-02-18T06:27:28.857Z,-4.77
2024-02-18T06:28:28.846Z,-4.76
2024-02-18T06:29:28.816Z,-4.73
2024-02-18T06:30:28.868Z,-4.78
2024-02-18T06:31:29.362Z,-4.74
2024-02-18T06:32:28.904Z,-4.74
2024-02-18T06:33:29.055Z,-4.75
2024-02-18T06:34:29.038Z,-4.69
2024-02-18T06:35:29.019Z,-4.67
2024-02-18T06:36:29.040Z,-4.64
2024-02-18T06:37:29.124Z,-4.63
2024-02-18T06:38:28.962Z,-4.64
2024-02-18T06:39:29.018Z,-4.55
2024-02-18T06:40:29.028Z,-4.5
2024-02-18T06:41:29.007Z,-4.48
2024-02-18T06:42:29.118Z,-4.47
2024-02-18T06:43:29.050Z,-4.49
2024-02-18T06:44:29.056Z,-4.53
2024-02-18T06:45:29.101Z,-4.52
2024-02-18T06:46:29.103Z,-4.51
2024-02-18T06:47:29.156Z,-4.51
2024-02-18T06:48:29.309Z,-4.51
2024-02-18T06:49:29.264Z,-4.47
2024-02-18T06:50:29.181Z,-4.44
2024-02-18T06:51:29.236Z,-4.4
2024-02-18T06:52:29.217Z,-4.38
2024-02-18T06:53:29.230Z,-4.34
2024-02-18T06:54:29.259Z,-4.32
2024-02-18T06:55:29.242Z,-4.3
2024-02-18T06:56:29.269Z,-4.27
2024-02-18T06:57:29.332Z,-4.24
2024-02-18T06:58:29.785Z,-4.27
2024-02-18T06:59:29.819Z,-4.31
2024-02-18T07:00:30.038Z,-4.33
2024-02-18T07:01:29.971Z,-4.27
2024-02-18T07:02:29.851Z,-4.19
2024-02-18T07:03:30.038Z,-4.15
2024-02-18T07:04:29.943Z,-4.18
2024-02-18T07:05:29.912Z,-4.15
2024-02-18T07:06:30.052Z,-4.15
2024-02-18T07:07:29.960Z,-4.14
2024-02-18T07:08:29.985Z,-4.14
2024-02-18T07:09:30.018Z,-4.08
2024-02-18T07:10:29.957Z,-4.05
2024-02-18T07:11:30.117Z,-4.04
2024-02-18T07:12:30.096Z,-4.05
2024-02-18T07:13:30.001Z,-4.1
2024-02-18T07:14:30.030Z,-4.02
2024-02-18T07:15:30.087Z,-4.03
2024-02-18T07:16:30.075Z,-3.95
2024-02-18T07:17:30.266Z,-3.88
2024-02-18T07:18:30.354Z,-3.85
2024-02-18T07:19:30.185Z,-3.9
2024-02-18T07:20:30.122Z,-3.9
2024-02-18T07:21:30.182Z,-3.94
2024-02-18T07:22:30.160Z,-3.93
2024-02-18T07:23:30.152Z,-3.86
2024-02-18T07:24:30.218Z,-3.84
2024-02-18T07:25:30.193Z,-3.82
2024-02-18T07:26:30.215Z,-3.8
2024-02-18T07:27:30.268Z,-3.79
2024-02-18T07:28:30.272Z,-3.73
2024-02-18T07:29:30.271Z,-3.68
2024-02-18T07:30:30.267Z,-3.51
2024-02-18T07:31:30.504Z,-3.44
2024-02-18T07:32:30.353Z,-3.52
2024-02-18T07:33:30.513Z,-3.57
2024-02-18T07:34:30.488Z,-3.55
2024-02-18T07:35:30.542Z,-3.52
2024-02-18T07:36:30.573Z,-3.53
2024-02-18T07:37:30.408Z,-3.57
2024-02-18T07:38:30.832Z,-3.61
2024-02-18T07:39:30.966Z,-3.65
2024-02-18T07:40:30.926Z,-3.59
2024-02-18T07:41:30.912Z,-3.53
2024-02-18T07:42:30.990Z,-3.44
2024-02-18T07:43:30.999Z,-3.44
2024-02-18T07:44:30.988Z,-3.51
2024-02-18T07:45:31.008Z,-3.43
2024-02-18T07:46:30.981Z,-3.37
2024-02-18T07:47:31.064Z,-3.31
2024-02-18T07:48:31.222Z,-3.33
2024-02-18T07:49:31.111Z,-3.39
2024-02-18T07:50:31.111Z,-3.34
2024-02-18T07:51:31.155Z,-3.32
2024-02-18T07:52:31.132Z,-3.28
2024-02-18T07:53:31.178Z,-3.24
2024-02-18T07:54:31.171Z,-3.3
2024-02-18T07:55:31.176Z,-3.35
2024-02-18T07:56:31.191Z,-3.32
2024-02-18T07:57:31.249Z,-3.3
2024-02-18T07:58:31.250Z,-3.31
2024-02-18T07:59:33.025Z,-3.3
2024-02-18T08:00:31.264Z,-3.14
2024-02-18T08:01:31.401Z,-3.12
2024-02-18T08:02:31.296Z,-3.01
2024-02-18T08:03:31.441Z,-3.11
2024-02-18T08:04:31.355Z,-3.05
2024-02-18T08:05:31.308Z,-2.94
2024-02-18T08:06:31.510Z,-2.87
2024-02-18T08:07:31.477Z,-2.97
2024-02-18T08:08:31.405Z,-3.06
2024-02-18T08:09:31.412Z,-3.12
2024-02-18T08:10:31.402Z,-3.02
2024-02-18T08:11:31.447Z,-3.08
2024-02-18T08:12:31.732Z,-3.07
2024-02-18T08:13:31.450Z,-3.08
2024-02-18T08:14:31.499Z,-2.97
2024-02-18T08:15:31.574Z,-2.93
2024-02-18T08:16:31.484Z,-2.87
2024-02-18T08:17:31.565Z,-2.81
2024-02-18T08:18:31.704Z,-2.88
2024-02-18T08:19:31.657Z,-2.83
2024-02-18T08:20:31.572Z,-2.71
2024-02-18T08:21:31.621Z,-2.68
2024-02-18T08:22:31.656Z,-2.79
2024-02-18T08:23:31.604Z,-2.91
2024-02-18T08:24:31.705Z,-2.92
2024-02-18T08:25:31.650Z,-2.82
2024-02-18T08:26:31.651Z,-2.75
2024-02-18T08:27:31.856Z,-2.81
2024-02-18T08:28:31.737Z,-2.78
2024-02-18T08:29:31.706Z,-2.79
2024-02-18T08:30:31.801Z,-2.72
2024-02-18T08:31:31.804Z,-2.77
2024-02-18T08:32:31.774Z,-2.77
2024-02-18T08:33:31.767Z,-2.84
2024-02-18T08:34:31.928Z,-2.74
2024-02-18T08:35:31.831Z,-2.78
2024-02-18T08:36:33.562Z,-2.81
2024-02-18T08:37:31.970Z,-2.71
2024-02-18T08:38:31.813Z,-2.71
2024-02-18T08:39:31.956Z,-2.74
2024-02-18T08:40:31.906Z,-2.64
2024-02-18T08:41:31.878Z,-2.57
2024-02-18T08:42:31.948Z,-2.65
2024-02-18T08:43:32.106Z,-2.64
2024-02-18T08:44:31.938Z,-2.71
2024-02-18T08:45:32.101Z,-2.64
2024-02-18T08:46:31.984Z,-2.68
2024-02-18T08:47:32.030Z,-2.63
2024-02-18T08:48:32.119Z,-2.56
2024-02-18T08:49:32.192Z,-2.53
2024-02-18T08:50:32.058Z,-2.46
2024-02-18T08:51:32.090Z,-2.48
2024-02-18T08:52:32.084Z,-2.41
2024-02-18T08:53:32.077Z,-2.45
2024-02-18T08:54:32.152Z,-2.41
2024-02-18T08:55:32.151Z,-2.4
2024-02-18T08:56:32.113Z,-2.37
2024-02-18T08:57:32.184Z,-2.4
2024-02-18T08:58:32.158Z,-2.43
2024-02-18T08:59:32.196Z,-2.45
2024-02-18T09:00:32.253Z,-2.42
2024-02-18T09:01:32.304Z,-2.39
2024-02-18T09:02:32.216Z,-2.4
2024-02-18T09:03:32.681Z,-2.32
2024-02-18T09:04:32.420Z,-2.23
2024-02-18T09:05:32.296Z,-2.29
2024-02-18T09:06:32.509Z,-2.14
2024-02-18T09:07:32.633Z,-2.22
2024-02-18T09:08:32.311Z,-2.28
2024-02-18T09:09:32.381Z,-2.27
2024-02-18T09:10:32.412Z,-2.31
2024-02-18T09:11:32.426Z,-2.28
2024-02-18T09:12:32.437Z,-2.22
2024-02-18T09:13:32.414Z,-2.15
2024-02-18T09:14:32.442Z,-2.13
2024-02-18T09:15:33.067Z,-2.03
2024-02-18T09:16:32.439Z,-1.94
2024-02-18T09:17:32.548Z,-1.84
2024-02-18T09:18:32.627Z,-1.83
2024-02-18T09:19:32.597Z,-1.7
2024-02-18T09:20:32.541Z,-1.85
2024-02-18T09:21:32.561Z,-1.9
2024-02-18T09:22:32.538Z,-1.97
2024-02-18T09:23:32.542Z,-1.9
2024-02-18T09:24:32.718Z,-1.82
2024-02-18T09:25:32.692Z,-1.74
2024-02-18T09:26:32.631Z,-1.68
2024-02-18T09:27:32.609Z,-1.69
2024-02-18T09:28:34.976Z,-1.66
2024-02-18T09:29:32.695Z,-1.6
2024-02-18T09:30:32.667Z,-1.61
2024-02-18T09:31:36.215Z,-1.6
2024-02-18T09:32:32.681Z,-1.67
2024-02-18T09:33:32.867Z,-1.63
2024-02-18T09:34:32.971Z,-1.48
2024-02-18T09:35:33.151Z,-1.49
2024-02-18T09:36:32.761Z,-1.42
2024-02-18T09:37:32.915Z,-1.53
2024-02-18T09:38:32.761Z,-1.57
2024-02-18T09:39:32.910Z,-1.57
2024-02-18T09:40:32.819Z,-1.53
2024-02-18T09:41:33.238Z,-1.39
2024-02-18T09:42:34.921Z,-1.37
2024-02-18T09:43:33.866Z,-1.46
2024-02-18T09:44:34.890Z,-1.63
2024-02-18T09:45:34.206Z,-1.64
2024-02-18T09:46:35.715Z,-1.51
2024-02-18T09:47:33.566Z,-1.25
2024-02-18T09:48:33.610Z,-1.12
2024-02-18T09:49:34.403Z,-1.2
2024-02-18T09:50:33.089Z,-1.16
2024-02-18T09:51:36.196Z,-0.92
2024-02-18T09:52:34.327Z,-0.93
2024-02-18T09:53:36.184Z,-1.01
2024-02-18T09:54:33.954Z,-0.65
2024-02-18T09:55:33.060Z,-0.75
2024-02-18T09:56:33.409Z,-0.72
2024-02-18T09:57:33.121Z,-0.89
2024-02-18T09:58:33.314Z,-0.99
2024-02-18T09:59:33.187Z,-1.19
2024-02-18T10:00:33.389Z,-1.22
2024-02-18T10:01:33.953Z,-1.11
2024-02-18T10:02:34.125Z,-1.18
2024-02-18T10:03:33.198Z,-1.3
2024-02-18T10:04:33.526Z,-1.27
2024-02-18T10:05:33.196Z,-1.32
2024-02-18T10:06:33.284Z,-1.3
2024-02-18T10:07:33.564Z,-1.18
2024-02-18T10:09:34.069Z,-1.14
2024-02-18T10:10:34.578Z,-1.14
2024-02-18T10:11:34.431Z,-0.97
2024-02-18T10:12:34.523Z,-0.82
2024-02-18T10:13:34.068Z,-1.18
2024-02-18T10:14:33.948Z,-1.39
2024-02-18T10:15:34.257Z,-1.41
2024-02-18T10:16:34.796Z,-1.25
2024-02-18T10:17:34.656Z,-1.21
2024-02-18T10:18:34.104Z,-1.21
2024-02-18T10:19:34.208Z,-1.15
2024-02-18T10:20:34.050Z,-1.14
2024-02-18T10:21:34.155Z,-1.02
2024-02-18T10:22:34.059Z,-1.1
2024-02-18T10:23:34.095Z,-1.02
2024-02-18T10:24:34.605Z,-1.14
2024-02-18T10:25:36.308Z,-1.14
2024-02-18T10:26:34.414Z,-1.22
2024-02-18T10:27:36.895Z,-1.07
2024-02-18T10:28:40.195Z,-1.09
2024-02-18T10:29:38.066Z,-1.17
2024-02-18T10:30:38.042Z,-1.22
2024-02-18T10:31:38.042Z,-1.11
2024-02-18T10:32:38.402Z,-1.17
2024-02-18T10:33:38.902Z,-1.28
2024-02-18T10:34:38.350Z,-1.19
2024-02-18T10:35:38.353Z,-1.08
2024-02-18T10:36:38.944Z,-1.01
2024-02-18T10:37:39.140Z,-0.94
2024-02-18T10:38:47.919Z,-0.88
2024-02-18T10:39:39.875Z,-0.73
2024-02-18T10:40:40.430Z,-0.92
2024-02-18T10:41:48.099Z,-0.81
2024-02-18T10:42:42.225Z,-0.89
2024-02-18T10:43:44.392Z,-1.03
2024-02-18T10:44:41.831Z,-0.9
2024-02-18T10:45:41.400Z,-0.88
2024-02-18T10:46:41.753Z,-0.81
2024-02-18T10:47:41.501Z,-0.63
2024-02-18T10:48:41.516Z,-0.8
2024-02-18T10:49:41.514Z,-0.74
2024-02-18T10:50:48.518Z,-0.56
2024-02-18T10:51:45.792Z,-0.59
2024-02-18T10:52:48.605Z,-0.66
2024-02-18T10:53:46.113Z,-0.76
2024-02-18T10:55:49.387Z,-0.88
2024-02-18T10:56:46.396Z,-0.62
2024-02-18T11:01:02.281Z,-0.94
2024-02-18T11:02:08.638Z,-0.82
2024-02-18T11:03:09.605Z,-0.83
2024-02-18T11:04:03.647Z,-0.74
2024-02-18T11:05:02.081Z,-0.82
2024-02-18T11:06:02.072Z,-0.82
2024-02-18T11:07:02.964Z,-0.71
2024-02-18T11:08:02.492Z,-0.82
2024-02-18T11:09:01.866Z,-0.87
2024-02-18T11:10:02.071Z,-0.74
2024-02-18T11:11:02.822Z,-0.76
2024-02-18T11:12:03.133Z,-0.7
2024-02-18T11:13:02.378Z,-0.91
2024-02-18T11:14:02.461Z,-0.81
2024-02-18T11:15:02.217Z,-0.84
2024-02-18T11:16:02.402Z,-0.81
2024-02-18T11:17:01.833Z,-0.71
2024-02-18T11:18:02.817Z,-0.87
2024-02-18T11:19:02.483Z,-0.85
2024-02-18T11:20:02.504Z,-0.79
2024-02-18T11:21:02.060Z,-0.85
2024-02-18T11:22:02.168Z,-0.83
2024-02-18T11:23:02.237Z,-0.87
2024-02-18T11:24:01.980Z,-0.92
2024-02-18T11:25:04.068Z,-0.84
2024-02-18T11:26:02.172Z,-0.7
2024-02-18T11:27:02.097Z,-0.72
2024-02-18T11:28:02.148Z,-0.76
2024-02-18T11:29:02.303Z,-0.76
2024-02-18T11:30:02.239Z,-0.79
2024-02-18T11:31:02.134Z,-0.85
2024-02-18T11:32:02.215Z,-0.7
2024-02-18T11:33:02.337Z,-0.71
2024-02-18T11:34:02.294Z,-0.79
2024-02-18T11:35:11.356Z,-0.8
2024-02-18T11:36:15.997Z,-0.89
2024-02-18T11:38:09.040Z,-0.77
2024-02-18T11:39:08.938Z,-0.77
2024-02-18T11:40:13.234Z,-0.54
2024-02-18T11:42:15.313Z,-0.59
2024-02-18T11:43:15.820Z,-0.56
2024-02-18T11:44:15.336Z,-0.49
2024-02-18T11:45:16.563Z,-0.49
2024-02-18T11:46:18.997Z,-0.53
2024-02-18T11:47:15.440Z,-0.64
2024-02-18T11:48:15.813Z,-0.76
2024-02-18T11:49:15.763Z,-0.71
2024-02-18T11:50:16.049Z,-0.75
2024-02-18T11:51:15.508Z,-0.74
2024-02-18T11:52:16.162Z,-0.71
2024-02-18T11:53:15.756Z,-0.77
2024-02-18T11:54:15.949Z,-0.76
2024-02-18T11:55:16.349Z,-0.85
2024-02-18T11:56:16.523Z,-0.87
2024-02-18T11:57:16.121Z,-0.66
2024-02-18T11:58:16.091Z,-0.66
2024-02-18T11:59:16.031Z,-0.63
2024-02-18T12:00:16.691Z,-0.62
2024-02-18T12:01:16.462Z,-0.58
2024-02-18T12:02:16.299Z,-0.51
2024-02-18T12:03:16.667Z,-0.56
2024-02-18T12:04:16.280Z,-0.63
2024-02-18T12:05:16.557Z,-0.49
2024-02-18T12:06:16.259Z,-0.56
2024-02-18T12:07:16.434Z,-0.63
2024-02-18T12:08:16.217Z,-0.63
2024-02-18T12:09:16.188Z,-0.61
2024-02-18T12:10:19.128Z,-0.7
2024-02-18T12:11:16.272Z,-0.78
2024-02-18T12:12:16.289Z,-0.81
2024-02-18T12:13:16.295Z,-0.86
2024-02-18T12:14:16.317Z,-0.8
2024-02-18T12:15:22.873Z,-0.74
2024-02-18T12:16:19.444Z,-0.64
2024-02-18T12:17:19.253Z,-0.41
2024-02-18T12:18:19.574Z,-0.4
2024-02-18T12:19:19.359Z,-0.38
2024-02-18T12:20:19.777Z,-0.41
2024-02-18T12:21:19.302Z,-0.66
2024-02-18T12:22:19.978Z,-0.75
2024-02-18T12:23:19.339Z,-0.72
2024-02-18T12:24:19.376Z,-0.78
2024-02-18T12:25:19.563Z,-0.74
2024-02-18T12:26:19.380Z,-0.74
2024-02-18T12:27:20.145Z,-0.68
2024-02-18T12:28:20.005Z,-0.75
2024-02-18T12:29:19.903Z,-0.69
2024-02-18T12:30:20.154Z,-0.52
2024-02-18T12:31:19.999Z,-0.38
2024-02-18T12:32:20.172Z,-0.39
2024-02-18T12:33:20.163Z,-0.38
2024-02-18T12:34:20.220Z,-0.44
2024-02-18T12:35:20.106Z,-0.51
2024-02-18T12:36:20.171Z,-0.53
2024-02-18T12:37:27.643Z,-0.57
2024-02-18T12:38:21.941Z,-0.58
2024-02-18T12:39:21.710Z,-0.53
2024-02-18T12:40:21.811Z,-0.52
2024-02-18T12:41:22.284Z,-0.49
2024-02-18T12:42:22.767Z,-0.53
2024-02-18T12:43:55.528Z,-0.54
2024-02-18T12:45:04.451Z,-0.63
2024-02-18T12:45:42.531Z,-0.64
2024-02-18T12:46:28.571Z,-0.55
2024-02-18T12:48:30.184Z,-0.38
2024-02-18T12:49:30.617Z,-0.43
2024-02-18T12:50:30.382Z,-0.33
2024-02-18T12:51:30.100Z,-0.25
2024-02-18T12:52:30.063Z,-0.27
2024-02-18T12:53:30.061Z,-0.55
2024-02-18T12:54:30.100Z,-0.68
2024-02-18T12:55:30.676Z,-0.63
2024-02-18T12:56:30.115Z,-0.65
2024-02-18T12:57:30.707Z,-0.54
2024-02-18T12:58:30.271Z,-0.44
2024-02-18T12:59:30.565Z,-0.42
2024-02-18T13:00:30.351Z,-0.36
2024-02-18T13:01:30.368Z,-0.23
2024-02-18T13:02:30.285Z,-0.19
2024-02-18T13:03:30.449Z,-0.11
2024-02-18T13:04:30.349Z,-0.28